KBZN

Bozeman Yellowstone International Airport

Bozeman, Montana, USA

KBZN 110856Z AUTO 00000KT 10SM CLR M09/M13 A3051 RMK AO2 SLP387 T10891128 58003

Observed Flight Rules
Dec-11 @ 08:56 UTC (20 minutes ago) Visual Flight Rules
Wind Visibility Clouds
Calm 10 miles
  • Clear skies
Temperatures Readings
Current -9°C / 16°F
Dewpoint -13°C / 9°F
Humidity 73%
Altimeter 30.51" Hg
Pressure 1038.7 hPa
Elevation 1361
Observed Flight Rules
Dec-11 @ 08:56 UTC
(20 minutes ago)
VFR
Wind Visibility
Calm 10 miles
Clouds
  • Clear skies
Temperature Dewpoint
-9°C / 16°F -13°C / 9°F
Humidity Altimeter Pressure
73% 30.51" Hg 1038.7 hPa